sensor_id;sensor_type;location;lat;lon;timestamp;P1;durP1;ratioP1;P2;durP2;ratioP2
50519;SDS011;36468;44.098;3.078;2023-02-01T00:00:12;36.20;;;17.02;;
50519;SDS011;36468;44.098;3.078;2023-02-01T00:02:38;35.50;;;16.83;;
50519;SDS011;36468;44.098;3.078;2023-02-01T00:05:08;83.07;;;37.78;;
50519;SDS011;36468;44.098;3.078;2023-02-01T00:07:35;43.00;;;21.02;;
50519;SDS011;36468;44.098;3.078;2023-02-01T00:10:02;47.30;;;19.73;;
50519;SDS011;36468;44.098;3.078;2023-02-01T00:12:28;41.42;;;18.35;;
50519;SDS011;36468;44.098;3.078;2023-02-01T00:14:54;41.88;;;20.08;;
50519;SDS011;36468;44.098;3.078;2023-02-01T00:17:20;43.30;;;20.05;;
50519;SDS011;36468;44.098;3.078;2023-02-01T00:19:46;42.75;;;18.13;;
50519;SDS011;36468;44.098;3.078;2023-02-01T00:22:12;40.83;;;19.05;;
50519;SDS011;36468;44.098;3.078;2023-02-01T00:24:38;74.70;;;29.75;;
50519;SDS011;36468;44.098;3.078;2023-02-01T00:27:04;48.75;;;20.73;;
50519;SDS011;36468;44.098;3.078;2023-02-01T00:29:31;48.35;;;20.58;;
50519;SDS011;36468;44.098;3.078;2023-02-01T00:31:57;52.65;;;23.02;;
50519;SDS011;36468;44.098;3.078;2023-02-01T00:34:23;55.22;;;24.95;;
50519;SDS011;36468;44.098;3.078;2023-02-01T00:36:49;59.85;;;25.38;;
50519;SDS011;36468;44.098;3.078;2023-02-01T00:39:15;56.15;;;24.35;;
50519;SDS011;36468;44.098;3.078;2023-02-01T00:41:41;81.00;;;32.33;;
50519;SDS011;36468;44.098;3.078;2023-02-01T00:44:07;152.27;;;50.92;;
50519;SDS011;36468;44.098;3.078;2023-02-01T00:46:33;109.75;;;42.10;;
50519;SDS011;36468;44.098;3.078;2023-02-01T00:48:59;112.40;;;41.95;;
50519;SDS011;36468;44.098;3.078;2023-02-01T00:51:26;82.60;;;33.25;;
50519;SDS011;36468;44.098;3.078;2023-02-01T00:53:52;54.83;;;25.10;;
50519;SDS011;36468;44.098;3.078;2023-02-01T00:56:19;60.85;;;25.08;;
50519;SDS011;36468;44.098;3.078;2023-02-01T00:58:45;61.15;;;25.73;;
50519;SDS011;36468;44.098;3.078;2023-02-01T01:01:12;53.88;;;24.50;;
50519;SDS011;36468;44.098;3.078;2023-02-01T01:03:39;50.40;;;22.85;;
50519;SDS011;36468;44.098;3.078;2023-02-01T01:06:07;41.83;;;18.80;;
50519;SDS011;36468;44.098;3.078;2023-02-01T01:08:33;44.92;;;20.63;;
50519;SDS011;36468;44.098;3.078;2023-02-01T01:11:03;56.10;;;25.08;;
50519;SDS011;36468;44.098;3.078;2023-02-01T01:13:29;53.53;;;24.50;;
50519;SDS011;36468;44.098;3.078;2023-02-01T01:15:55;55.50;;;22.77;;
50519;SDS011;36468;44.098;3.078;2023-02-01T01:18:21;68.57;;;28.42;;
50519;SDS011;36468;44.098;3.078;2023-02-01T01:20:47;66.97;;;26.92;;
50519;SDS011;36468;44.098;3.078;2023-02-01T01:23:14;46.72;;;19.98;;
50519;SDS011;36468;44.098;3.078;2023-02-01T01:25:40;56.40;;;23.92;;
50519;SDS011;36468;44.098;3.078;2023-02-01T01:28:06;49.53;;;21.50;;
50519;SDS011;36468;44.098;3.078;2023-02-01T01:30:33;54.72;;;22.67;;
50519;SDS011;36468;44.098;3.078;2023-02-01T01:33:00;48.03;;;21.83;;
50519;SDS011;36468;44.098;3.078;2023-02-01T01:35:26;54.53;;;23.92;;
50519;SDS011;36468;44.098;3.078;2023-02-01T01:37:54;54.83;;;23.73;;
50519;SDS011;36468;44.098;3.078;2023-02-01T01:40:20;57.00;;;24.65;;
50519;SDS011;36468;44.098;3.078;2023-02-01T01:42:46;52.80;;;22.98;;
50519;SDS011;36468;44.098;3.078;2023-02-01T01:45:21;62.53;;;27.13;;
50519;SDS011;36468;44.098;3.078;2023-02-01T01:47:52;70.50;;;28.92;;
50519;SDS011;36468;44.098;3.078;2023-02-01T01:50:20;77.32;;;32.60;;
50519;SDS011;36468;44.098;3.078;2023-02-01T01:52:48;58.08;;;24.25;;
50519;SDS011;36468;44.098;3.078;2023-02-01T01:55:15;49.72;;;22.52;;
50519;SDS011;36468;44.098;3.078;2023-02-01T01:57:43;44.67;;;20.27;;
50519;SDS011;36468;44.098;3.078;2023-02-01T02:00:13;42.33;;;19.30;;
50519;SDS011;36468;44.098;3.078;2023-02-01T02:02:40;39.25;;;17.73;;
50519;SDS011;36468;44.098;3.078;2023-02-01T02:05:07;38.10;;;18.58;;
50519;SDS011;36468;44.098;3.078;2023-02-01T02:07:35;34.67;;;16.17;;
50519;SDS011;36468;44.098;3.078;2023-02-01T02:10:06;28.60;;;14.55;;
50519;SDS011;36468;44.098;3.078;2023-02-01T02:12:33;28.63;;;14.43;;
50519;SDS011;36468;44.098;3.078;2023-02-01T02:14:59;48.72;;;18.98;;
50519;SDS011;36468;44.098;3.078;2023-02-01T02:28:05;24.17;;;11.90;;
50519;SDS011;36468;44.098;3.078;2023-02-01T02:35:46;24.85;;;12.15;;
50519;SDS011;36468;44.098;3.078;2023-02-01T02:38:31;24.08;;;10.98;;
50519;SDS011;36468;44.098;3.078;2023-02-01T02:43:28;24.98;;;10.75;;
50519;SDS011;36468;44.098;3.078;2023-02-01T02:46:21;31.60;;;14.18;;
50519;SDS011;36468;44.098;3.078;2023-02-01T02:49:11;24.63;;;12.02;;
50519;SDS011;36468;44.098;3.078;2023-02-01T02:51:41;30.60;;;11.73;;
50519;SDS011;36468;44.098;3.078;2023-02-01T02:54:31;25.42;;;11.73;;
50519;SDS011;36468;44.098;3.078;2023-02-01T02:57:12;23.35;;;11.40;;
50519;SDS011;36468;44.098;3.078;2023-02-01T02:59:59;25.20;;;11.27;;
50519;SDS011;36468;44.098;3.078;2023-02-01T03:02:45;23.70;;;11.80;;
50519;SDS011;36468;44.098;3.078;2023-02-01T03:05:34;26.25;;;12.20;;
50519;SDS011;36468;44.098;3.078;2023-02-01T03:15:47;45.55;;;18.20;;
50519;SDS011;36468;44.098;3.078;2023-02-01T03:18:15;37.38;;;16.30;;
50519;SDS011;36468;44.098;3.078;2023-02-01T03:20:43;25.50;;;12.15;;
50519;SDS011;36468;44.098;3.078;2023-02-01T03:23:10;25.60;;;11.45;;
50519;SDS011;36468;44.098;3.078;2023-02-01T03:25:39;22.17;;;11.00;;
50519;SDS011;36468;44.098;3.078;2023-02-01T03:28:06;19.95;;;9.98;;
50519;SDS011;36468;44.098;3.078;2023-02-01T03:33:05;15.52;;;8.40;;
50519;SDS011;36468;44.098;3.078;2023-02-01T03:40:43;15.07;;;8.18;;
50519;SDS011;36468;44.098;3.078;2023-02-01T03:43:11;20.33;;;9.63;;
50519;SDS011;36468;44.098;3.078;2023-02-01T03:45:43;18.17;;;8.82;;
50519;SDS011;36468;44.098;3.078;2023-02-01T03:48:10;15.57;;;8.73;;
50519;SDS011;36468;44.098;3.078;2023-02-01T03:50:39;15.40;;;7.13;;
50519;SDS011;36468;44.098;3.078;2023-02-01T03:53:13;14.77;;;7.10;;
50519;SDS011;36468;44.098;3.078;2023-02-01T03:55:40;15.85;;;7.22;;
50519;SDS011;36468;44.098;3.078;2023-02-01T03:58:08;13.65;;;7.38;;
50519;SDS011;36468;44.098;3.078;2023-02-01T04:00:35;18.02;;;7.70;;
50519;SDS011;36468;44.098;3.078;2023-02-01T04:03:01;15.93;;;8.15;;
50519;SDS011;36468;44.098;3.078;2023-02-01T04:05:28;17.10;;;8.20;;
50519;SDS011;36468;44.098;3.078;2023-02-01T04:07:55;15.27;;;7.63;;
50519;SDS011;36468;44.098;3.078;2023-02-01T04:10:21;14.38;;;7.30;;
50519;SDS011;36468;44.098;3.078;2023-02-01T04:12:47;17.17;;;7.65;;
50519;SDS011;36468;44.098;3.078;2023-02-01T04:15:13;14.77;;;7.22;;
50519;SDS011;36468;44.098;3.078;2023-02-01T04:17:39;14.07;;;7.13;;
50519;SDS011;36468;44.098;3.078;2023-02-01T04:20:06;14.60;;;6.63;;
50519;SDS011;36468;44.098;3.078;2023-02-01T04:22:32;14.15;;;6.10;;
50519;SDS011;36468;44.098;3.078;2023-02-01T04:24:58;12.02;;;6.15;;
50519;SDS011;36468;44.098;3.078;2023-02-01T04:27:24;11.30;;;6.25;;
50519;SDS011;36468;44.098;3.078;2023-02-01T04:29:50;13.48;;;6.72;;
50519;SDS011;36468;44.098;3.078;2023-02-01T04:32:16;10.55;;;5.85;;
50519;SDS011;36468;44.098;3.078;2023-02-01T04:34:42;12.07;;;6.28;;
50519;SDS011;36468;44.098;3.078;2023-02-01T04:37:08;10.63;;;6.15;;
50519;SDS011;36468;44.098;3.078;2023-02-01T04:39:34;14.32;;;6.75;;
50519;SDS011;36468;44.098;3.078;2023-02-01T04:42:00;14.52;;;7.75;;
50519;SDS011;36468;44.098;3.078;2023-02-01T04:44:26;15.38;;;7.50;;
50519;SDS011;36468;44.098;3.078;2023-02-01T04:46:53;13.00;;;6.28;;
50519;SDS011;36468;44.098;3.078;2023-02-01T04:49:19;11.52;;;6.47;;
50519;SDS011;36468;44.098;3.078;2023-02-01T04:51:46;11.43;;;6.28;;
50519;SDS011;36468;44.098;3.078;2023-02-01T04:54:12;14.20;;;6.80;;
50519;SDS011;36468;44.098;3.078;2023-02-01T04:56:39;15.35;;;6.65;;
50519;SDS011;36468;44.098;3.078;2023-02-01T04:59:05;15.55;;;7.40;;
50519;SDS011;36468;44.098;3.078;2023-02-01T05:01:31;12.60;;;7.22;;
50519;SDS011;36468;44.098;3.078;2023-02-01T05:03:57;17.65;;;7.93;;
50519;SDS011;36468;44.098;3.078;2023-02-01T05:06:23;15.32;;;8.90;;
50519;SDS011;36468;44.098;3.078;2023-02-01T05:08:49;18.58;;;9.48;;
50519;SDS011;36468;44.098;3.078;2023-02-01T05:11:16;14.38;;;7.40;;
50519;SDS011;36468;44.098;3.078;2023-02-01T05:14:00;15.90;;;7.40;;
50519;SDS011;36468;44.098;3.078;2023-02-01T05:16:26;14.02;;;7.15;;
50519;SDS011;36468;44.098;3.078;2023-02-01T05:18:53;13.48;;;7.22;;
50519;SDS011;36468;44.098;3.078;2023-02-01T05:21:19;11.32;;;6.35;;
50519;SDS011;36468;44.098;3.078;2023-02-01T05:23:45;12.48;;;6.75;;
50519;SDS011;36468;44.098;3.078;2023-02-01T05:26:30;11.57;;;6.45;;
50519;SDS011;36468;44.098;3.078;2023-02-01T05:28:56;10.52;;;5.55;;
50519;SDS011;36468;44.098;3.078;2023-02-01T05:31:22;14.93;;;7.50;;
50519;SDS011;36468;44.098;3.078;2023-02-01T05:33:48;15.90;;;9.80;;
50519;SDS011;36468;44.098;3.078;2023-02-01T05:36:15;16.33;;;10.63;;
50519;SDS011;36468;44.098;3.078;2023-02-01T05:38:41;14.85;;;9.43;;
50519;SDS011;36468;44.098;3.078;2023-02-01T05:41:07;15.65;;;9.35;;
50519;SDS011;36468;44.098;3.078;2023-02-01T05:43:33;13.95;;;8.25;;
50519;SDS011;36468;44.098;3.078;2023-02-01T05:45:59;19.77;;;10.55;;
50519;SDS011;36468;44.098;3.078;2023-02-01T05:48:25;27.20;;;14.25;;
50519;SDS011;36468;44.098;3.078;2023-02-01T05:50:51;12.95;;;6.82;;
50519;SDS011;36468;44.098;3.078;2023-02-01T05:53:17;13.35;;;6.97;;
50519;SDS011;36468;44.098;3.078;2023-02-01T05:55:43;16.05;;;7.93;;
50519;SDS011;36468;44.098;3.078;2023-02-01T05:58:09;12.63;;;7.32;;
50519;SDS011;36468;44.098;3.078;2023-02-01T06:00:35;9.27;;;5.75;;
50519;SDS011;36468;44.098;3.078;2023-02-01T06:03:01;7.47;;;4.55;;
50519;SDS011;36468;44.098;3.078;2023-02-01T06:05:27;9.73;;;5.70;;
50519;SDS011;36468;44.098;3.078;2023-02-01T06:07:53;21.70;;;7.70;;
50519;SDS011;36468;44.098;3.078;2023-02-01T06:10:19;14.65;;;6.53;;
50519;SDS011;36468;44.098;3.078;2023-02-01T06:12:46;7.60;;;3.95;;
50519;SDS011;36468;44.098;3.078;2023-02-01T06:15:12;10.60;;;5.13;;
50519;SDS011;36468;44.098;3.078;2023-02-01T06:17:40;14.73;;;7.70;;
50519;SDS011;36468;44.098;3.078;2023-02-01T06:20:08;8.25;;;4.60;;
50519;SDS011;36468;44.098;3.078;2023-02-01T06:22:34;10.02;;;5.03;;
50519;SDS011;36468;44.098;3.078;2023-02-01T06:25:01;8.57;;;5.47;;
50519;SDS011;36468;44.098;3.078;2023-02-01T06:27:27;9.25;;;5.18;;
50519;SDS011;36468;44.098;3.078;2023-02-01T06:29:53;11.82;;;5.80;;
50519;SDS011;36468;44.098;3.078;2023-02-01T06:32:20;9.52;;;5.65;;
50519;SDS011;36468;44.098;3.078;2023-02-01T06:34:46;9.18;;;4.38;;
50519;SDS011;36468;44.098;3.078;2023-02-01T06:37:12;8.07;;;4.43;;
50519;SDS011;36468;44.098;3.078;2023-02-01T06:39:39;13.07;;;7.47;;
50519;SDS011;36468;44.098;3.078;2023-02-01T06:42:05;12.30;;;6.32;;
50519;SDS011;36468;44.098;3.078;2023-02-01T06:44:31;10.52;;;5.82;;
50519;SDS011;36468;44.098;3.078;2023-02-01T06:47:03;11.50;;;6.28;;
50519;SDS011;36468;44.098;3.078;2023-02-01T06:49:29;12.18;;;6.88;;
50519;SDS011;36468;44.098;3.078;2023-02-01T06:51:55;18.85;;;9.60;;
50519;SDS011;36468;44.098;3.078;2023-02-01T06:54:22;35.63;;;14.95;;
50519;SDS011;36468;44.098;3.078;2023-02-01T06:56:48;83.40;;;38.33;;
50519;SDS011;36468;44.098;3.078;2023-02-01T06:59:14;14.75;;;6.93;;
50519;SDS011;36468;44.098;3.078;2023-02-01T07:01:40;14.10;;;6.65;;
50519;SDS011;36468;44.098;3.078;2023-02-01T07:04:06;44.65;;;17.77;;
50519;SDS011;36468;44.098;3.078;2023-02-01T07:06:32;105.95;;;41.85;;
50519;SDS011;36468;44.098;3.078;2023-02-01T07:08:58;51.92;;;20.85;;
50519;SDS011;36468;44.098;3.078;2023-02-01T07:11:25;106.47;;;32.67;;
50519;SDS011;36468;44.098;3.078;2023-02-01T07:13:53;179.45;;;58.72;;
50519;SDS011;36468;44.098;3.078;2023-02-01T07:16:19;27.23;;;10.95;;
50519;SDS011;36468;44.098;3.078;2023-02-01T07:18:45;120.72;;;50.58;;
50519;SDS011;36468;44.098;3.078;2023-02-01T07:21:12;44.13;;;20.33;;
50519;SDS011;36468;44.098;3.078;2023-02-01T07:23:38;45.55;;;18.33;;
50519;SDS011;36468;44.098;3.078;2023-02-01T07:26:05;79.20;;;32.80;;
50519;SDS011;36468;44.098;3.078;2023-02-01T07:28:32;77.18;;;34.25;;
50519;SDS011;36468;44.098;3.078;2023-02-01T07:31:02;58.42;;;24.20;;
50519;SDS011;36468;44.098;3.078;2023-02-01T07:33:28;58.97;;;24.63;;
50519;SDS011;36468;44.098;3.078;2023-02-01T07:35:54;94.10;;;39.08;;
50519;SDS011;36468;44.098;3.078;2023-02-01T07:38:20;56.35;;;23.45;;
50519;SDS011;36468;44.098;3.078;2023-02-01T07:40:47;25.63;;;10.70;;
50519;SDS011;36468;44.098;3.078;2023-02-01T07:43:13;17.35;;;7.40;;
50519;SDS011;36468;44.098;3.078;2023-02-01T07:45:39;43.22;;;21.42;;
50519;SDS011;36468;44.098;3.078;2023-02-01T07:48:05;191.50;;;143.10;;
50519;SDS011;36468;44.098;3.078;2023-02-01T07:50:31;35.65;;;14.40;;
50519;SDS011;36468;44.098;3.078;2023-02-01T07:52:58;31.05;;;13.25;;
50519;SDS011;36468;44.098;3.078;2023-02-01T07:55:25;51.22;;;19.58;;
50519;SDS011;36468;44.098;3.078;2023-02-01T07:57:51;41.70;;;16.60;;
50519;SDS011;36468;44.098;3.078;2023-02-01T08:00:18;27.17;;;8.65;;
50519;SDS011;36468;44.098;3.078;2023-02-01T08:03:03;26.20;;;8.35;;
50519;SDS011;36468;44.098;3.078;2023-02-01T08:05:30;25.83;;;11.30;;
50519;SDS011;36468;44.098;3.078;2023-02-01T08:07:56;18.95;;;7.78;;
50519;SDS011;36468;44.098;3.078;2023-02-01T08:10:22;26.73;;;8.70;;
50519;SDS011;36468;44.098;3.078;2023-02-01T08:12:48;27.58;;;6.82;;
50519;SDS011;36468;44.098;3.078;2023-02-01T08:15:16;36.75;;;13.65;;
50519;SDS011;36468;44.098;3.078;2023-02-01T08:17:47;39.40;;;15.35;;
50519;SDS011;36468;44.098;3.078;2023-02-01T08:20:13;55.92;;;25.35;;
50519;SDS011;36468;44.098;3.078;2023-02-01T08:22:39;32.13;;;16.88;;
50519;SDS011;36468;44.098;3.078;2023-02-01T08:25:05;15.70;;;8.10;;
50519;SDS011;36468;44.098;3.078;2023-02-01T08:27:34;19.67;;;8.57;;
50519;SDS011;36468;44.098;3.078;2023-02-01T08:30:00;29.35;;;9.02;;
50519;SDS011;36468;44.098;3.078;2023-02-01T08:32:26;17.48;;;6.90;;
50519;SDS011;36468;44.098;3.078;2023-02-01T08:34:53;18.58;;;8.13;;
50519;SDS011;36468;44.098;3.078;2023-02-01T08:37:19;12.20;;;7.30;;
50519;SDS011;36468;44.098;3.078;2023-02-01T08:39:45;21.40;;;7.30;;
50519;SDS011;36468;44.098;3.078;2023-02-01T08:42:12;13.80;;;5.88;;
50519;SDS011;36468;44.098;3.078;2023-02-01T08:44:56;12.73;;;5.88;;
50519;SDS011;36468;44.098;3.078;2023-02-01T08:47:23;13.82;;;6.20;;
50519;SDS011;36468;44.098;3.078;2023-02-01T08:49:49;18.75;;;7.25;;
50519;SDS011;36468;44.098;3.078;2023-02-01T08:52:16;15.93;;;8.13;;
50519;SDS011;36468;44.098;3.078;2023-02-01T08:54:42;21.75;;;10.82;;
50519;SDS011;36468;44.098;3.078;2023-02-01T08:57:08;21.73;;;10.50;;
50519;SDS011;36468;44.098;3.078;2023-02-01T08:59:35;18.80;;;9.40;;
50519;SDS011;36468;44.098;3.078;2023-02-01T09:02:01;18.40;;;9.98;;
50519;SDS011;36468;44.098;3.078;2023-02-01T09:04:27;15.63;;;8.63;;
50519;SDS011;36468;44.098;3.078;2023-02-01T09:06:53;27.67;;;13.43;;
50519;SDS011;36468;44.098;3.078;2023-02-01T09:09:21;70.00;;;27.48;;
50519;SDS011;36468;44.098;3.078;2023-02-01T09:11:47;41.92;;;17.33;;
50519;SDS011;36468;44.098;3.078;2023-02-01T09:14:15;34.13;;;12.40;;
50519;SDS011;36468;44.098;3.078;2023-02-01T09:16:41;25.67;;;10.80;;
50519;SDS011;36468;44.098;3.078;2023-02-01T09:19:07;27.00;;;8.88;;
50519;SDS011;36468;44.098;3.078;2023-02-01T09:21:33;22.90;;;11.02;;
50519;SDS011;36468;44.098;3.078;2023-02-01T09:23:59;19.13;;;8.10;;
50519;SDS011;36468;44.098;3.078;2023-02-01T09:26:26;23.30;;;11.02;;
50519;SDS011;36468;44.098;3.078;2023-02-01T09:28:52;39.03;;;14.10;;
50519;SDS011;36468;44.098;3.078;2023-02-01T09:31:18;40.22;;;17.88;;
50519;SDS011;36468;44.098;3.078;2023-02-01T09:33:44;34.78;;;14.80;;
50519;SDS011;36468;44.098;3.078;2023-02-01T09:36:11;27.70;;;12.02;;
50519;SDS011;36468;44.098;3.078;2023-02-01T09:38:37;36.10;;;14.63;;
50519;SDS011;36468;44.098;3.078;2023-02-01T09:41:07;36.28;;;15.20;;
50519;SDS011;36468;44.098;3.078;2023-02-01T09:43:46;24.27;;;9.57;;
50519;SDS011;36468;44.098;3.078;2023-02-01T09:46:21;29.52;;;10.68;;
50519;SDS011;36468;44.098;3.078;2023-02-01T09:48:49;26.70;;;9.20;;
50519;SDS011;36468;44.098;3.078;2023-02-01T09:51:19;21.10;;;8.02;;
50519;SDS011;36468;44.098;3.078;2023-02-01T09:53:50;18.75;;;7.43;;
50519;SDS011;36468;44.098;3.078;2023-02-01T09:56:23;16.70;;;8.20;;
50519;SDS011;36468;44.098;3.078;2023-02-01T10:01:18;13.18;;;7.00;;
50519;SDS011;36468;44.098;3.078;2023-02-01T10:03:45;19.88;;;7.65;;
50519;SDS011;36468;44.098;3.078;2023-02-01T10:11:32;270.95;;;139.13;;
50519;SDS011;36468;44.098;3.078;2023-02-01T10:26:50;116.30;;;57.60;;
50519;SDS011;36468;44.098;3.078;2023-02-01T10:29:18;28.95;;;12.73;;
50519;SDS011;36468;44.098;3.078;2023-02-01T10:31:45;9.55;;;3.95;;
50519;SDS011;36468;44.098;3.078;2023-02-01T10:34:18;7.90;;;3.30;;
50519;SDS011;36468;44.098;3.078;2023-02-01T10:39:18;8.52;;;3.80;;
50519;SDS011;36468;44.098;3.078;2023-02-01T10:41:44;5.32;;;3.35;;
50519;SDS011;36468;44.098;3.078;2023-02-01T10:44:11;4.18;;;2.70;;
50519;SDS011;36468;44.098;3.078;2023-02-01T10:46:39;3.72;;;2.30;;
50519;SDS011;36468;44.098;3.078;2023-02-01T10:49:05;6.05;;;2.80;;
50519;SDS011;36468;44.098;3.078;2023-02-01T10:54:03;26.17;;;11.23;;
50519;SDS011;36468;44.098;3.078;2023-02-01T10:56:29;28.25;;;10.52;;
50519;SDS011;36468;44.098;3.078;2023-02-01T10:59:03;8.63;;;4.45;;
50519;SDS011;36468;44.098;3.078;2023-02-01T11:01:56;12.43;;;6.35;;
50519;SDS011;36468;44.098;3.078;2023-02-01T11:04:17;6.80;;;3.95;;
50519;SDS011;36468;44.098;3.078;2023-02-01T11:06:49;7.00;;;4.25;;
50519;SDS011;36468;44.098;3.078;2023-02-01T11:09:23;5.00;;;2.88;;
50519;SDS011;36468;44.098;3.078;2023-02-01T11:16:43;6.18;;;3.55;;
50519;SDS011;36468;44.098;3.078;2023-02-01T11:19:13;7.30;;;3.78;;
50519;SDS011;36468;44.098;3.078;2023-02-01T11:21:41;3.83;;;2.35;;
50519;SDS011;36468;44.098;3.078;2023-02-01T11:24:11;10.38;;;5.20;;
50519;SDS011;36468;44.098;3.078;2023-02-01T11:26:42;7.25;;;3.55;;
50519;SDS011;36468;44.098;3.078;2023-02-01T11:29:10;6.00;;;3.10;;
50519;SDS011;36468;44.098;3.078;2023-02-01T11:31:38;7.05;;;4.20;;
50519;SDS011;36468;44.098;3.078;2023-02-01T11:36:32;4.15;;;2.22;;
50519;SDS011;36468;44.098;3.078;2023-02-01T11:41:54;6.82;;;2.70;;
50519;SDS011;36468;44.098;3.078;2023-02-01T11:44:22;4.35;;;2.03;;
50519;SDS011;36468;44.098;3.078;2023-02-01T11:46:52;6.85;;;3.65;;
50519;SDS011;36468;44.098;3.078;2023-02-01T11:49:22;9.85;;;4.85;;
50519;SDS011;36468;44.098;3.078;2023-02-01T11:59:17;3.75;;;2.58;;
50519;SDS011;36468;44.098;3.078;2023-02-01T12:07:26;2.65;;;1.80;;
50519;SDS011;36468;44.098;3.078;2023-02-01T12:12:34;4.95;;;2.92;;
50519;SDS011;36468;44.098;3.078;2023-02-01T12:33:14;6.00;;;4.60;;
50519;SDS011;36468;44.098;3.078;2023-02-01T12:38:29;3.20;;;2.00;;
50519;SDS011;36468;44.098;3.078;2023-02-01T12:43:53;6.90;;;3.67;;
50519;SDS011;36468;44.098;3.078;2023-02-01T12:48:53;7.70;;;3.97;;
50519;SDS011;36468;44.098;3.078;2023-02-01T12:51:22;6.15;;;3.58;;
50519;SDS011;36468;44.098;3.078;2023-02-01T12:58:58;2.10;;;1.55;;
50519;SDS011;36468;44.098;3.078;2023-02-01T13:04:04;6.03;;;2.95;;
50519;SDS011;36468;44.098;3.078;2023-02-01T13:06:38;43.35;;;22.77;;
50519;SDS011;36468;44.098;3.078;2023-02-01T13:11:35;10.68;;;5.03;;
50519;SDS011;36468;44.098;3.078;2023-02-01T13:14:10;3.13;;;1.80;;
50519;SDS011;36468;44.098;3.078;2023-02-01T13:16:39;7.20;;;1.85;;
50519;SDS011;36468;44.098;3.078;2023-02-01T13:19:12;3.92;;;2.08;;
50519;SDS011;36468;44.098;3.078;2023-02-01T13:21:43;1.95;;;1.45;;
50519;SDS011;36468;44.098;3.078;2023-02-01T13:27:00;1.38;;;1.17;;
50519;SDS011;36468;44.098;3.078;2023-02-01T13:29:27;2.40;;;1.10;;
50519;SDS011;36468;44.098;3.078;2023-02-01T13:32:38;1.25;;;1.05;;
50519;SDS011;36468;44.098;3.078;2023-02-01T13:34:47;2.00;;;1.08;;
50519;SDS011;36468;44.098;3.078;2023-02-01T13:42:30;3.05;;;1.80;;
50519;SDS011;36468;44.098;3.078;2023-02-01T13:45:01;4.85;;;2.70;;
50519;SDS011;36468;44.098;3.078;2023-02-01T13:49:56;6.15;;;2.95;;
50519;SDS011;36468;44.098;3.078;2023-02-01T13:52:25;3.13;;;1.58;;
50519;SDS011;36468;44.098;3.078;2023-02-01T13:55:00;1.88;;;1.35;;
50519;SDS011;36468;44.098;3.078;2023-02-01T13:57:37;1.75;;;1.10;;
50519;SDS011;36468;44.098;3.078;2023-02-01T14:02:49;1.27;;;0.85;;
50519;SDS011;36468;44.098;3.078;2023-02-01T14:13:13;3.05;;;1.25;;
50519;SDS011;36468;44.098;3.078;2023-02-01T14:15:40;2.03;;;1.42;;
50519;SDS011;36468;44.098;3.078;2023-02-01T14:18:48;4.38;;;2.38;;
50519;SDS011;36468;44.098;3.078;2023-02-01T14:21:18;2.83;;;1.02;;
50519;SDS011;36468;44.098;3.078;2023-02-01T14:23:47;1.20;;;0.80;;
50519;SDS011;36468;44.098;3.078;2023-02-01T14:26:15;7.13;;;3.00;;
50519;SDS011;36468;44.098;3.078;2023-02-01T14:28:43;3.08;;;1.70;;
50519;SDS011;36468;44.098;3.078;2023-02-01T14:31:14;3.05;;;1.13;;
50519;SDS011;36468;44.098;3.078;2023-02-01T14:33:41;2.38;;;1.42;;
50519;SDS011;36468;44.098;3.078;2023-02-01T14:36:12;2.83;;;1.08;;
50519;SDS011;36468;44.098;3.078;2023-02-01T14:38:39;4.30;;;0.80;;
50519;SDS011;36468;44.098;3.078;2023-02-01T14:41:15;0.50;;;0.43;;
50519;SDS011;36468;44.098;3.078;2023-02-01T14:43:51;0.98;;;0.70;;
50519;SDS011;36468;44.098;3.078;2023-02-01T14:46:17;0.52;;;0.47;;
50519;SDS011;36468;44.098;3.078;2023-02-01T14:48:44;4.55;;;0.50;;
50519;SDS011;36468;44.098;3.078;2023-02-01T14:51:11;0.50;;;0.50;;
50519;SDS011;36468;44.098;3.078;2023-02-01T14:53:39;1.40;;;0.52;;
50519;SDS011;36468;44.098;3.078;2023-02-01T14:56:08;0.60;;;0.50;;
50519;SDS011;36468;44.098;3.078;2023-02-01T14:58:40;0.88;;;0.68;;
50519;SDS011;36468;44.098;3.078;2023-02-01T15:08:51;2.65;;;1.48;;
50519;SDS011;36468;44.098;3.078;2023-02-01T15:11:18;3.03;;;1.40;;
50519;SDS011;36468;44.098;3.078;2023-02-01T15:13:47;1.80;;;1.10;;
50519;SDS011;36468;44.098;3.078;2023-02-01T15:16:15;2.72;;;1.40;;
50519;SDS011;36468;44.098;3.078;2023-02-01T15:18:42;3.03;;;1.45;;
50519;SDS011;36468;44.098;3.078;2023-02-01T15:21:41;3.00;;;1.50;;
50519;SDS011;36468;44.098;3.078;2023-02-01T15:24:10;2.35;;;1.30;;
50519;SDS011;36468;44.098;3.078;2023-02-01T15:26:36;4.53;;;1.45;;
50519;SDS011;36468;44.098;3.078;2023-02-01T15:29:02;2.88;;;1.70;;
50519;SDS011;36468;44.098;3.078;2023-02-01T15:31:36;4.30;;;1.65;;
50519;SDS011;36468;44.098;3.078;2023-02-01T15:34:03;10.68;;;5.10;;
50519;SDS011;36468;44.098;3.078;2023-02-01T15:36:29;6.63;;;3.40;;
50519;SDS011;36468;44.098;3.078;2023-02-01T15:39:16;5.43;;;3.00;;
50519;SDS011;36468;44.098;3.078;2023-02-01T15:41:47;7.18;;;3.85;;
50519;SDS011;36468;44.098;3.078;2023-02-01T15:44:47;4.57;;;2.50;;
50519;SDS011;36468;44.098;3.078;2023-02-01T15:47:16;5.90;;;1.98;;
50519;SDS011;36468;44.098;3.078;2023-02-01T15:49:43;4.95;;;2.42;;
50519;SDS011;36468;44.098;3.078;2023-02-01T15:52:14;3.38;;;1.90;;
50519;SDS011;36468;44.098;3.078;2023-02-01T15:54:49;9.32;;;4.50;;
50519;SDS011;36468;44.098;3.078;2023-02-01T15:57:21;3.10;;;1.70;;
50519;SDS011;36468;44.098;3.078;2023-02-01T15:59:55;4.50;;;1.95;;
50519;SDS011;36468;44.098;3.078;2023-02-01T16:03:20;3.10;;;1.27;;
50519;SDS011;36468;44.098;3.078;2023-02-01T16:07:57;3.63;;;0.88;;
50519;SDS011;36468;44.098;3.078;2023-02-01T16:10:29;5.80;;;1.60;;
50519;SDS011;36468;44.098;3.078;2023-02-01T16:12:55;2.60;;;1.75;;
50519;SDS011;36468;44.098;3.078;2023-02-01T16:15:25;3.55;;;1.63;;
50519;SDS011;36468;44.098;3.078;2023-02-01T16:17:51;8.45;;;3.30;;
50519;SDS011;36468;44.098;3.078;2023-02-01T16:20:17;52.80;;;18.75;;
50519;SDS011;36468;44.098;3.078;2023-02-01T16:22:43;28.60;;;10.38;;
50519;SDS011;36468;44.098;3.078;2023-02-01T16:25:09;34.05;;;13.20;;
50519;SDS011;36468;44.098;3.078;2023-02-01T16:27:35;50.38;;;19.73;;
50519;SDS011;36468;44.098;3.078;2023-02-01T16:30:02;61.78;;;23.50;;
50519;SDS011;36468;44.098;3.078;2023-02-01T16:32:28;11.35;;;4.20;;
50519;SDS011;36468;44.098;3.078;2023-02-01T16:34:56;34.88;;;14.18;;
50519;SDS011;36468;44.098;3.078;2023-02-01T16:37:23;46.53;;;18.02;;
50519;SDS011;36468;44.098;3.078;2023-02-01T16:39:49;75.00;;;29.25;;
50519;SDS011;36468;44.098;3.078;2023-02-01T16:42:15;56.58;;;19.73;;
50519;SDS011;36468;44.098;3.078;2023-02-01T16:44:42;74.18;;;28.25;;
50519;SDS011;36468;44.098;3.078;2023-02-01T16:47:12;36.88;;;15.23;;
50519;SDS011;36468;44.098;3.078;2023-02-01T16:49:38;22.02;;;8.93;;
50519;SDS011;36468;44.098;3.078;2023-02-01T16:52:06;50.03;;;18.17;;
50519;SDS011;36468;44.098;3.078;2023-02-01T16:54:35;42.55;;;15.77;;
50519;SDS011;36468;44.098;3.078;2023-02-01T16:57:01;50.38;;;20.23;;
50519;SDS011;36468;44.098;3.078;2023-02-01T16:59:27;39.72;;;15.25;;
50519;SDS011;36468;44.098;3.078;2023-02-01T17:01:53;43.05;;;17.75;;
50519;SDS011;36468;44.098;3.078;2023-02-01T17:04:19;49.85;;;19.55;;
50519;SDS011;36468;44.098;3.078;2023-02-01T17:06:45;38.28;;;15.40;;
50519;SDS011;36468;44.098;3.078;2023-02-01T17:09:13;27.98;;;10.52;;
50519;SDS011;36468;44.098;3.078;2023-02-01T17:11:39;30.40;;;12.70;;
50519;SDS011;36468;44.098;3.078;2023-02-01T17:16:38;34.28;;;15.23;;